Time;durP1;ratioP1;P1;durP2;ratioP2;P2;SDS_P1;SDS_P2;PMS_P1;PMS_P2;Temp;Humidity;BMP_temperature;BMP_pressure;BME280_temperature;BME280_humidity;BME280_pressure;Samples;Min_cycle;Max_cycle;Signal;HPM_P1;HPM_P2
2023/08/29 00:01:47;;;;;;;19.35;14.93;;;;;;;16.36;100.00;-18467.81;5026580;28;20179;-76
2023/08/29 00:04:14;;;;;;;20.15;14.80;;;;;;;16.43;100.00;-18469.75;5025558;28;20091;-77
2023/08/29 00:06:39;;;;;;;19.65;13.77;;;;;;;16.26;100.00;-18465.09;5023849;28;20034;-76
2023/08/29 00:09:05;;;;;;;18.15;13.55;;;;;;;16.21;100.00;-18463.88;5022067;28;20040;-77
2023/08/29 00:11:30;;;;;;;19.83;14.02;;;;;;;16.26;100.00;-18464.97;5023181;28;20054;-76
2023/08/29 00:13:56;;;;;;;19.05;14.20;;;;;;;16.25;100.00;-18464.81;5009308;28;20489;-76
2023/08/29 00:16:22;;;;;;;19.25;14.40;;;;;;;16.13;100.00;-18461.69;5008681;28;20087;-77
2023/08/29 00:18:47;;;;;;;20.40;15.18;;;;;;;16.25;100.00;-18464.81;5008400;28;20041;-76
2023/08/29 00:21:13;;;;;;;19.20;14.18;;;;;;;16.16;100.00;-18462.50;5025862;28;20852;-77
2023/08/29 00:23:38;;;;;;;18.48;13.85;;;;;;;16.13;100.00;-18461.53;5021208;28;20144;-76
2023/08/29 00:26:03;;;;;;;19.05;13.93;;;;;;;16.00;100.00;-18458.25;5026309;28;20033;-77
2023/08/29 00:28:29;;;;;;;18.50;13.32;;;;;;;15.97;100.00;-18457.44;5025293;28;20119;-77
2023/08/29 00:30:54;;;;;;;17.83;12.93;;;;;;;15.99;100.00;-18458.00;5019517;28;20128;-76
2023/08/29 00:33:20;;;;;;;21.05;14.13;;;;;;;16.05;100.00;-18459.34;5023431;28;20057;-77
2023/08/29 00:35:47;;;;;;;16.98;13.23;;;;;;;16.05;100.00;-18459.50;5022871;28;20120;-76
2023/08/29 00:38:12;;;;;;;16.83;13.25;;;;;;;16.07;100.00;-18459.91;5022839;28;20033;-76
2023/08/29 00:40:37;;;;;;;17.85;13.30;;;;;;;16.16;100.00;-18462.50;5024606;28;20382;-77
2023/08/29 00:43:03;;;;;;;17.13;13.02;;;;;;;16.06;100.00;-18459.63;5026185;28;20412;-77
2023/08/29 00:45:32;;;;;;;17.00;12.85;;;;;;;16.10;100.00;-18460.72;5025419;28;20046;-76
2023/08/29 00:47:58;;;;;;;19.27;12.85;;;;;;;16.01;100.00;-18458.53;5027196;28;20056;-76
2023/08/29 00:50:25;;;;;;;17.00;12.73;;;;;;;15.95;100.00;-18456.91;5023562;28;20045;-76
2023/08/29 00:52:54;;;;;;;16.60;12.60;;;;;;;15.84;100.00;-18453.75;5024966;28;20047;-76
2023/08/29 00:55:20;;;;;;;19.02;13.40;;;;;;;15.92;100.00;-18456.06;5024791;28;20084;-75
2023/08/29 00:57:46;;;;;;;15.75;12.15;;;;;;;16.01;100.00;-18458.41;5025755;28;20069;-76
2023/08/29 01:00:11;;;;;;;16.23;12.45;;;;;;;15.73;100.00;-18450.88;5016668;28;20463;-77
2023/08/29 01:02:37;;;;;;;16.40;11.98;;;;;;;15.67;100.00;-18449.22;5018088;28;20501;-76
2023/08/29 01:05:03;;;;;;;17.52;13.07;;;;;;;15.92;100.00;-18456.06;5025314;28;20132;-76
2023/08/29 01:07:29;;;;;;;16.42;11.60;;;;;;;15.88;100.00;-18454.97;5023954;28;20049;-77
2023/08/29 01:09:54;;;;;;;16.02;11.95;;;;;;;15.82;100.00;-18453.19;5025888;28;20104;-77
2023/08/29 01:12:20;;;;;;;18.10;11.70;;;;;;;15.77;100.00;-18452.13;5023738;28;20037;-76
2023/08/29 01:15:03;;;;;;;15.07;11.80;;;;;;;15.85;100.00;-18454.03;5011687;28;20556;-77
2023/08/29 01:17:33;;;;;;;17.98;12.10;;;;;;;15.85;100.00;-18454.16;5020797;28;20047;-76
2023/08/29 01:19:58;;;;;;;17.00;11.60;;;;;;;15.89;100.00;-18455.25;5005359;28;20045;-76
2023/08/29 01:22:29;;;;;;;17.60;11.68;;;;;;;15.90;100.00;-18455.53;5004753;28;20045;-76
2023/08/29 01:25:27;;;;;;;16.95;12.43;;;;;;;15.86;100.00;-18454.31;5010605;28;20531;-76
2023/08/29 01:27:54;;;;;;;17.77;11.82;;;;;;;15.88;100.00;-18454.97;5000803;28;20140;-77
2023/08/29 01:30:21;;;;;;;14.82;11.40;;;;;;;15.90;100.00;-18455.53;5007138;28;20072;-76
2023/08/29 01:32:47;;;;;;;15.05;11.40;;;;;;;15.82;100.00;-18453.34;5018246;28;20060;-76
2023/08/29 01:35:15;;;;;;;17.33;11.55;;;;;;;15.79;100.00;-18452.53;5006827;28;20037;-76
2023/08/29 01:37:40;;;;;;;15.30;11.00;;;;;;;15.68;100.00;-18449.50;5017451;28;20056;-77
2023/08/29 01:40:07;;;;;;;15.52;11.98;;;;;;;15.69;100.00;-18449.91;5026183;28;20038;-77
2023/08/29 01:42:32;;;;;;;17.50;11.50;;;;;;;15.67;100.00;-18449.38;5023610;28;20055;-77
2023/08/29 01:44:58;;;;;;;16.10;11.77;;;;;;;15.72;100.00;-18450.75;5007971;28;20400;-77
2023/08/29 01:47:23;;;;;;;15.40;11.32;;;;;;;15.75;100.00;-18451.56;5024017;28;20519;-77
2023/08/29 01:49:51;;;;;;;14.27;11.30;;;;;;;15.71;100.00;-18450.47;5020007;28;20056;-77
2023/08/29 01:52:16;;;;;;;17.08;12.13;;;;;;;15.65;100.00;-18448.69;4998329;28;20038;-77
2023/08/29 01:54:42;;;;;;;16.20;11.77;;;;;;;15.69;100.00;-18449.78;5019838;28;20071;-77
2023/08/29 01:57:10;;;;;;;14.73;10.88;;;;;;;15.53;100.00;-18445.69;5011362;28;20033;-77
2023/08/29 01:59:36;;;;;;;16.35;11.48;;;;;;;15.41;100.00;-18442.25;5019869;28;20064;-77
2023/08/29 02:02:02;;;;;;;18.63;11.13;;;;;;;15.52;100.00;-18445.28;5025872;28;20061;-78
2023/08/29 02:04:29;;;;;;;15.10;11.38;;;;;;;15.50;100.00;-18444.72;5025373;28;20460;-78
2023/08/29 02:06:54;;;;;;;14.98;11.32;;;;;;;15.46;100.00;-18443.63;4998623;28;20040;-77
2023/08/29 02:09:20;;;;;;;14.55;11.40;;;;;;;15.36;100.00;-18441.03;5008510;28;20033;-77
2023/08/29 02:11:45;;;;;;;16.88;11.93;;;;;;;15.43;100.00;-18442.94;5008523;28;20045;-77
2023/08/29 02:14:11;;;;;;;15.40;11.65;;;;;;;15.51;100.00;-18445.00;5026383;28;20040;-78
2023/08/29 02:16:37;;;;;;;16.45;12.60;;;;;;;15.63;100.00;-18448.28;5027348;28;20120;-77
2023/08/29 02:19:02;;;;;;;16.48;11.48;;;;;;;15.64;100.00;-18448.56;5026168;28;20041;-77
2023/08/29 02:21:28;;;;;;;17.48;12.60;;;;;;;15.67;100.00;-18449.22;5025704;28;20400;-77
2023/08/29 02:23:53;;;;;;;16.05;12.23;;;;;;;15.79;100.00;-18452.53;5021079;28;20041;-77
2023/08/29 02:26:19;;;;;;;16.17;12.05;;;;;;;15.65;100.00;-18448.69;5028685;28;20473;-77
2023/08/29 02:28:44;;;;;;;13.95;10.38;;;;;;;15.61;100.00;-18447.72;5010802;28;20034;-77
2023/08/29 02:31:10;;;;;;;16.80;11.80;;;;;;;15.67;100.00;-18449.22;5027375;28;20567;-77
2023/08/29 02:33:39;;;;;;;17.08;12.02;;;;;;;15.62;100.00;-18448.00;5024017;28;20037;-77
2023/08/29 02:36:05;;;;;;;15.20;11.15;;;;;;;15.64;100.00;-18448.41;5000760;28;20064;-76
2023/08/29 02:38:31;;;;;;;17.02;11.00;;;;;;;15.87;100.00;-18454.56;5025457;28;20041;-76
2023/08/29 02:40:57;;;;;;;15.38;11.02;;;;;;;15.97;100.00;-18457.44;5009886;28;20041;-77
2023/08/29 02:43:22;;;;;;;15.63;11.30;;;;;;;16.01;100.00;-18458.53;5018346;28;20536;-77
2023/08/29 02:45:50;;;;;;;14.80;10.80;;;;;;;15.84;100.00;-18453.75;5027896;28;20060;-77
2023/08/29 02:48:15;;;;;;;18.48;12.63;;;;;;;15.94;100.00;-18456.63;5003022;28;20030;-76
2023/08/29 02:50:42;;;;;;;15.23;11.68;;;;;;;15.76;100.00;-18451.69;5026389;28;20068;-77
2023/08/29 02:53:07;;;;;;;14.73;11.30;;;;;;;15.83;100.00;-18453.47;5024549;28;20033;-77
2023/08/29 02:55:32;;;;;;;16.27;11.88;;;;;;;15.97;100.00;-18457.31;5025768;28;20124;-77
2023/08/29 02:57:58;;;;;;;16.35;11.88;;;;;;;15.88;100.00;-18454.97;5022018;28;20681;-77
2023/08/29 03:00:24;;;;;;;17.33;11.38;;;;;;;15.95;100.00;-18456.91;5020340;28;20038;-77
2023/08/29 03:02:49;;;;;;;15.73;11.60;;;;;;;16.09;100.00;-18460.44;5024671;28;20404;-78
2023/08/29 03:05:15;;;;;;;15.73;12.18;;;;;;;16.16;100.00;-18462.38;5023401;28;20485;-78
2023/08/29 03:07:40;;;;;;;17.02;11.43;;;;;;;16.22;100.00;-18464.00;5020279;28;20084;-78
2023/08/29 03:10:06;;;;;;;15.63;11.60;;;;;;;16.14;100.00;-18461.81;5021347;28;20045;-78
2023/08/29 03:12:31;;;;;;;16.50;12.02;;;;;;;16.31;100.00;-18466.47;5011755;28;20056;-77
2023/08/29 03:14:57;;;;;;;14.40;11.13;;;;;;;16.21;100.00;-18463.72;5020813;28;20030;-77
2023/08/29 03:17:22;;;;;;;15.55;10.68;;;;;;;16.14;100.00;-18461.81;5025497;28;20072;-78
2023/08/29 03:19:48;;;;;;;15.77;11.38;;;;;;;16.09;100.00;-18460.44;5024207;28;20068;-77
2023/08/29 03:22:14;;;;;;;16.25;11.43;;;;;;;16.02;100.00;-18458.81;5026197;28;20041;-78
2023/08/29 03:24:39;;;;;;;18.38;11.50;;;;;;;16.04;100.00;-18459.09;5020804;28;20068;-77
2023/08/29 03:27:05;;;;;;;16.23;11.23;;;;;;;16.11;100.00;-18461.00;5001946;28;20503;-76
2023/08/29 03:29:30;;;;;;;14.93;10.80;;;;;;;15.65;100.00;-18448.81;5018188;28;20104;-77
2023/08/29 03:31:56;;;;;;;17.05;11.05;;;;;;;15.78;100.00;-18452.38;5027654;28;20047;-76
2023/08/29 03:34:21;;;;;;;16.80;12.00;;;;;;;15.89;100.00;-18455.25;5024592;28;20049;-76
2023/08/29 03:36:46;;;;;;;17.38;11.55;;;;;;;15.88;100.00;-18454.97;5025957;28;20047;-75
2023/08/29 03:39:12;;;;;;;17.85;12.05;;;;;;;16.00;100.00;-18458.25;4991754;28;20061;-76
2023/08/29 03:41:38;;;;;;;17.17;12.45;;;;;;;16.01;100.00;-18458.53;5025732;28;20045;-76
2023/08/29 03:44:04;;;;;;;14.35;11.45;;;;;;;16.05;100.00;-18459.34;5020047;28;20040;-75
2023/08/29 03:46:30;;;;;;;17.02;12.20;;;;;;;16.08;100.00;-18460.19;5022458;28;20069;-76
2023/08/29 03:48:55;;;;;;;17.67;12.25;;;;;;;15.93;100.00;-18456.34;5026014;28;20139;-76
2023/08/29 03:51:20;;;;;;;16.42;11.95;;;;;;;16.06;100.00;-18459.63;5023854;28;20050;-76
2023/08/29 03:53:46;;;;;;;20.23;13.75;;;;;;;16.22;100.00;-18464.00;5000465;28;20041;-79
2023/08/29 03:56:11;;;;;;;21.17;14.10;;;;;;;16.36;100.00;-18467.81;5025362;28;20045;-76
2023/08/29 03:58:37;;;;;;;18.42;13.38;;;;;;;16.47;100.00;-18470.69;5025148;28;20519;-76
2023/08/29 04:01:03;;;;;;;20.73;14.10;;;;;;;16.40;100.00;-18468.78;5026946;28;20044;-76
2023/08/29 04:03:30;;;;;;;20.70;14.07;;;;;;;16.37;100.00;-18468.09;5017843;28;20056;-76
2023/08/29 04:05:56;;;;;;;20.30;13.73;;;;;;;16.41;100.00;-18469.19;5025371;28;20156;-76
2023/08/29 04:08:21;;;;;;;19.95;13.75;;;;;;;16.43;100.00;-18469.75;5023112;28;20545;-76
2023/08/29 04:10:47;;;;;;;21.15;15.45;;;;;;;16.53;100.00;-18472.19;5006728;28;20045;-77
2023/08/29 04:13:12;;;;;;;21.33;14.27;;;;;;;16.56;100.00;-18473.16;5023628;28;20179;-76
2023/08/29 04:15:38;;;;;;;19.42;13.38;;;;;;;16.34;100.00;-18467.28;5022681;28;20492;-77
2023/08/29 04:18:03;;;;;;;21.55;14.43;;;;;;;16.38;100.00;-18468.38;5026298;28;20040;-76
2023/08/29 04:20:30;;;;;;;21.60;14.88;;;;;;;16.28;100.00;-18465.63;5017150;28;20169;-76
2023/08/29 04:22:57;;;;;;;21.83;14.02;;;;;;;15.92;100.00;-18456.06;5007231;28;20045;-78
2023/08/29 04:25:26;;;;;;;21.38;13.32;;;;;;;15.80;100.00;-18452.78;5023060;28;20196;-77
2023/08/29 04:27:52;;;;;;;20.85;13.88;;;;;;;15.99;100.00;-18458.00;5009350;28;20534;-76
2023/08/29 04:30:17;;;;;;;20.63;13.93;;;;;;;15.79;100.00;-18452.53;5017349;28;20061;-77
2023/08/29 04:32:42;;;;;;;24.70;14.35;;;;;;;15.85;100.00;-18454.16;5009160;28;20136;-76
2023/08/29 04:35:08;;;;;;;21.33;14.88;;;;;;;15.85;100.00;-18454.16;5007051;28;20039;-76
2023/08/29 04:37:34;;;;;;;19.27;13.27;;;;;;;15.82;100.00;-18453.34;5022599;28;20169;-77
2023/08/29 04:39:59;;;;;;;19.67;13.57;;;;;;;15.79;100.00;-18452.53;5026599;28;20497;-77
2023/08/29 04:42:25;;;;;;;21.25;13.98;;;;;;;15.80;100.00;-18452.78;5018353;28;20060;-76
2023/08/29 04:44:52;;;;;;;20.00;14.32;;;;;;;15.86;100.00;-18454.44;5024468;28;20046;-78
2023/08/29 04:47:18;;;;;;;20.73;14.43;;;;;;;15.78;100.00;-18452.25;5016678;28;20045;-77
2023/08/29 04:49:43;;;;;;;20.05;14.30;;;;;;;15.73;100.00;-18450.88;5022129;28;20050;-77
2023/08/29 04:52:09;;;;;;;19.80;13.15;;;;;;;15.74;100.00;-18451.28;5018822;28;20042;-77
2023/08/29 04:54:34;;;;;;;20.45;14.43;;;;;;;15.79;100.00;-18452.53;5022500;28;20049;-76
2023/08/29 04:56:59;;;;;;;21.90;14.63;;;;;;;15.89;100.00;-18455.13;5005451;28;20129;-77
2023/08/29 04:59:25;;;;;;;21.45;14.63;;;;;;;15.94;100.00;-18456.47;4999487;28;20045;-76
2023/08/29 05:01:50;;;;;;;23.58;14.50;;;;;;;15.95;100.00;-18456.91;5019927;28;20078;-76
2023/08/29 05:04:16;;;;;;;22.70;14.65;;;;;;;16.06;100.00;-18459.63;5023886;28;20087;-77
2023/08/29 05:06:41;;;;;;;23.23;14.30;;;;;;;15.98;100.00;-18457.72;5024191;28;20041;-77
2023/08/29 05:09:07;;;;;;;22.20;14.65;;;;;;;15.87;100.00;-18454.56;5025294;28;20088;-77
2023/08/29 05:11:33;;;;;;;21.50;14.70;;;;;;;15.93;100.00;-18456.34;5015986;28;20041;-77
2023/08/29 05:13:58;;;;;;;22.25;15.02;;;;;;;15.88;100.00;-18454.97;5018517;28;20045;-77
2023/08/29 05:16:23;;;;;;;21.95;14.60;;;;;;;15.87;100.00;-18454.72;5005276;28;20050;-76
2023/08/29 05:18:49;;;;;;;21.98;14.80;;;;;;;15.88;100.00;-18454.84;5017812;28;20037;-76
2023/08/29 05:21:14;;;;;;;24.55;15.77;;;;;;;15.94;100.00;-18456.63;5005734;28;20029;-77
2023/08/29 05:23:39;;;;;;;23.65;15.85;;;;;;;15.95;100.00;-18456.75;5021140;28;20068;-77
2023/08/29 05:26:05;;;;;;;24.40;16.27;;;;;;;16.00;100.00;-18458.13;4999174;28;20069;-77
2023/08/29 05:28:31;;;;;;;23.42;16.25;;;;;;;15.96;100.00;-18457.16;5021713;28;20144;-77
2023/08/29 05:30:56;;;;;;;24.75;15.80;;;;;;;16.02;100.00;-18458.81;5023535;28;20064;-77
2023/08/29 05:33:21;;;;;;;26.45;16.02;;;;;;;15.84;100.00;-18453.88;5016785;28;20603;-76
2023/08/29 05:35:47;;;;;;;24.63;16.83;;;;;;;16.00;100.00;-18458.25;5023031;28;20065;-77
2023/08/29 05:38:12;;;;;;;24.92;16.75;;;;;;;16.09;100.00;-18460.59;5023764;28;20037;-77
2023/08/29 05:40:37;;;;;;;26.25;17.15;;;;;;;16.11;100.00;-18461.00;5024219;28;20132;-76
2023/08/29 05:43:03;;;;;;;28.05;17.45;;;;;;;16.20;100.00;-18463.47;5022945;28;20050;-77
2023/08/29 05:45:28;;;;;;;26.30;16.38;;;;;;;16.35;100.00;-18467.41;5001070;28;20053;-77
2023/08/29 05:47:54;;;;;;;26.95;15.88;;;;;;;16.29;100.00;-18465.91;5025581;28;20091;-76
2023/08/29 05:50:19;;;;;;;23.52;15.63;;;;;;;16.40;100.00;-18468.94;5015231;28;20044;-76
2023/08/29 05:52:45;;;;;;;24.23;16.30;;;;;;;16.30;100.00;-18466.19;5005413;28;20042;-77
2023/08/29 05:55:10;;;;;;;26.35;17.48;;;;;;;16.40;100.00;-18468.94;5004424;28;20045;-76
2023/08/29 05:57:35;;;;;;;27.38;16.95;;;;;;;16.44;100.00;-18470.00;5000394;28;20056;-76
2023/08/29 06:00:04;;;;;;;26.50;16.17;;;;;;;16.39;100.00;-18468.50;5007610;28;20160;-77
2023/08/29 06:02:30;;;;;;;25.17;16.52;;;;;;;16.58;100.00;-18473.69;5017818;28;20087;-77
2023/08/29 06:04:55;;;;;;;23.30;16.20;;;;;;;16.70;100.00;-18476.84;5010226;28;20492;-76
2023/08/29 06:07:20;;;;;;;28.35;16.70;;;;;;;16.85;100.00;-18480.94;5018812;28;20077;-77
2023/08/29 06:09:46;;;;;;;26.27;16.30;;;;;;;16.81;100.00;-18479.84;5004923;28;20041;-76
2023/08/29 06:12:11;;;;;;;28.02;16.35;;;;;;;16.70;100.00;-18476.97;5023141;28;20144;-76
2023/08/29 06:14:37;;;;;;;25.15;15.80;;;;;;;16.78;100.00;-18479.03;5020675;28;20037;-77
2023/08/29 06:17:02;;;;;;;25.73;16.02;;;;;;;17.00;100.00;-18484.78;5019270;28;20141;-78
2023/08/29 06:19:27;;;;;;;24.02;16.00;;;;;;;16.92;100.00;-18482.88;5020599;28;20084;-77
2023/08/29 06:21:53;;;;;;;26.40;15.95;;;;;;;16.77;100.00;-18478.75;5019712;28;20034;-76
2023/08/29 06:24:18;;;;;;;25.67;17.02;;;;;;;16.89;100.00;-18481.91;4994015;28;20034;-76
2023/08/29 06:26:43;;;;;;;25.92;16.42;;;;;;;17.03;100.00;-18485.72;5022050;28;20072;-77
2023/08/29 06:29:09;;;;;;;24.65;16.10;;;;;;;16.97;100.00;-18484.09;5021448;28;20045;-76
2023/08/29 06:31:34;;;;;;;24.48;16.25;;;;;;;16.90;100.00;-18482.19;5022373;28;20050;-76
2023/08/29 06:33:59;;;;;;;26.75;15.77;;;;;;;16.92;100.00;-18482.88;5016015;28;20145;-76
2023/08/29 06:36:26;;;;;;;25.20;16.35;;;;;;;17.00;100.00;-18484.78;5012148;28;20064;-77
2023/08/29 06:38:52;;;;;;;24.60;16.10;;;;;;;16.95;100.00;-18483.41;5007816;28;20045;-77
2023/08/29 06:41:17;;;;;;;24.20;16.00;;;;;;;16.95;100.00;-18483.41;5026769;28;20037;-77
2023/08/29 06:43:43;;;;;;;23.77;16.05;;;;;;;16.97;100.00;-18484.09;5018805;28;20113;-77
2023/08/29 06:46:08;;;;;;;27.25;16.55;;;;;;;17.09;100.00;-18487.22;5020112;28;20054;-77
2023/08/29 06:48:33;;;;;;;23.23;14.95;;;;;;;17.04;100.00;-18486.00;5008178;28;20132;-77
2023/08/29 06:50:59;;;;;;;24.60;16.52;;;;;;;17.00;100.00;-18484.78;5005223;28;20061;-77
2023/08/29 06:53:26;;;;;;;24.42;15.40;;;;;;;16.98;100.00;-18484.38;5023015;28;20488;-77
2023/08/29 06:55:51;;;;;;;25.38;16.10;;;;;;;17.20;100.00;-18490.22;5028136;28;20507;-77
2023/08/29 06:58:17;;;;;;;22.45;15.38;;;;;;;17.29;100.00;-18492.56;5020582;28;20037;-76
2023/08/29 07:00:42;;;;;;;24.35;15.88;;;;;;;17.27;100.00;-18492.00;5021587;28;20489;-77
2023/08/29 07:03:07;;;;;;;25.17;16.42;;;;;;;17.22;100.00;-18490.66;5011902;28;20052;-77
2023/08/29 07:05:33;;;;;;;23.60;15.20;;;;;;;17.24;100.00;-18491.31;5019973;28;20045;-76
2023/08/29 07:07:59;;;;;;;24.80;16.83;;;;;;;17.19;100.00;-18489.81;5027932;28;20033;-77
2023/08/29 07:10:25;;;;;;;25.88;16.50;;;;;;;17.18;100.00;-18489.69;5003794;28;20045;-76
2023/08/29 07:12:50;;;;;;;23.77;15.98;;;;;;;17.07;100.00;-18486.81;5027172;28;20037;-76
2023/08/29 07:15:16;;;;;;;25.92;16.75;;;;;;;17.12;100.00;-18488.06;5020070;28;20518;-76
2023/08/29 07:17:41;;;;;;;25.50;16.98;;;;;;;17.25;100.00;-18491.59;5020516;28;20091;-77
2023/08/29 07:20:08;;;;;;;27.00;17.95;;;;;;;17.51;100.00;-18498.44;5029075;28;20049;-77
2023/08/29 07:22:42;;;;;;;27.52;18.05;;;;;;;17.55;100.00;-18499.50;5025621;28;20038;-77
2023/08/29 07:25:07;;;;;;;27.48;18.25;;;;;;;17.47;100.00;-18497.34;5028183;28;20037;-77
2023/08/29 07:27:33;;;;;;;26.75;17.98;;;;;;;17.62;100.00;-18501.44;5025391;28;20409;-76
2023/08/29 07:29:58;;;;;;;27.25;17.35;;;;;;;17.59;100.00;-18500.75;5019719;28;20048;-76
2023/08/29 07:32:24;;;;;;;25.90;18.45;;;;;;;17.64;100.00;-18501.97;5026980;28;20041;-77
2023/08/29 07:34:54;;;;;;;29.10;19.60;;;;;;;17.64;100.00;-18501.97;5026918;28;20428;-77
2023/08/29 07:37:19;;;;;;;28.45;19.20;;;;;;;17.63;100.00;-18501.69;5025027;28;20489;-76
2023/08/29 07:39:44;;;;;;;23.95;17.27;;;;;;;17.62;100.00;-18501.28;5027409;28;20045;-76
2023/08/29 07:42:10;;;;;;;26.58;19.73;;;;;;;17.64;100.00;-18501.97;5027624;28;20037;-76
2023/08/29 07:44:35;;;;;;;26.67;19.58;;;;;;;17.84;100.00;-18507.16;5007173;28;20103;-76
2023/08/29 07:47:01;;;;;;;29.70;20.65;;;;;;;17.97;100.00;-18510.72;5007430;28;20509;-76
2023/08/29 07:49:26;;;;;;;28.63;19.58;;;;;;;17.87;100.00;-18507.97;5018890;28;20045;-77
2023/08/29 07:51:53;;;;;;;27.92;18.90;;;;;;;17.86;100.00;-18507.72;5024106;28;20037;-77
2023/08/29 07:54:19;;;;;;;27.02;18.02;;;;;;;18.09;100.00;-18513.97;5021122;28;20037;-76
2023/08/29 07:56:44;;;;;;;23.50;18.10;;;;;;;17.95;100.00;-18510.31;5026170;28;20106;-76
2023/08/29 07:59:09;;;;;;;25.77;19.08;;;;;;;18.36;100.00;-18521.06;5010214;28;20037;-76
2023/08/29 08:01:35;;;;;;;23.58;17.77;;;;;;;18.49;100.00;-18524.63;5006696;28;20045;-76
2023/08/29 08:04:03;;;;;;;23.88;16.95;;;;;;;18.69;100.00;-18530.06;5016315;28;20037;-75
2023/08/29 08:06:28;;;;;;;24.75;17.15;;;;;;;18.62;100.00;-18528.16;5023161;28;20116;-76
2023/08/29 08:08:54;;;;;;;23.73;15.48;;;;;;;18.72;100.00;-18530.75;5026829;28;20180;-76
2023/08/29 08:11:20;;;;;;;24.00;16.63;;;;;;;18.89;100.00;-18535.25;5008697;28;20512;-76
2023/08/29 08:13:47;;;;;;;20.33;15.18;;;;;;;18.92;100.00;-18536.22;5022010;28;20061;-75
2023/08/29 08:16:12;;;;;;;20.98;13.77;;;;;;;18.66;100.00;-18529.25;5005251;28;20037;-76
2023/08/29 08:18:37;;;;;;;23.17;16.17;;;;;;;18.92;100.00;-18536.22;5017940;28;20099;-77
2023/08/29 08:21:03;;;;;;;20.13;15.50;;;;;;;18.83;100.00;-18533.75;5023630;28;20048;-76
2023/08/29 08:23:29;;;;;;;20.92;15.10;;;;;;;18.76;100.00;-18531.72;5000141;28;20048;-77
2023/08/29 08:25:54;;;;;;;22.67;15.35;;;;;;;19.11;100.00;-18541.25;5019887;28;20602;-77
2023/08/29 08:28:19;;;;;;;19.63;14.68;;;;;;;18.88;100.00;-18535.13;5013606;28;20042;-77
2023/08/29 08:30:45;;;;;;;18.92;14.55;;;;;;;18.83;100.00;-18533.75;5025556;28;20038;-76
2023/08/29 08:33:11;;;;;;;19.98;14.50;;;;;;;18.82;100.00;-18533.34;5024274;28;20127;-76
2023/08/29 08:35:36;;;;;;;18.05;13.88;;;;;;;18.86;100.00;-18534.56;5023187;28;20029;-76
2023/08/29 08:38:02;;;;;;;16.40;13.32;;;;;;;18.89;100.00;-18535.41;5025859;28;20121;-76
2023/08/29 08:40:28;;;;;;;16.95;13.10;;;;;;;18.95;100.00;-18536.91;5017369;28;20046;-77
2023/08/29 08:42:54;;;;;;;18.55;13.57;;;;;;;19.17;100.00;-18542.88;5024167;28;20045;-76
2023/08/29 08:45:22;;;;;;;16.55;12.77;;;;;;;19.30;100.00;-18546.16;5024928;28;20041;-76
2023/08/29 08:47:48;;;;;;;15.67;12.60;;;;;;;19.70;100.00;-18556.94;5025495;28;20496;-76
2023/08/29 08:50:14;;;;;;;13.60;10.90;;;;;;;20.03;100.00;-18565.78;5026656;28;20045;-76
2023/08/29 08:52:41;;;;;;;13.63;11.07;;;;;;;20.19;100.00;-18569.84;5019426;28;20042;-76
2023/08/29 08:55:07;;;;;;;12.50;9.77;;;;;;;20.20;100.00;-18570.13;5020532;28;20179;-76
2023/08/29 08:57:33;;;;;;;12.80;10.18;;;;;;;20.46;100.00;-18577.22;5016929;28;20041;-76
2023/08/29 08:59:58;;;;;;;11.68;10.25;;;;;;;20.71;100.00;-18583.75;5008646;28;20715;-76
2023/08/29 09:02:24;;;;;;;14.13;9.68;;;;;;;20.91;100.00;-18589.19;5017922;28;20184;-77
2023/08/29 09:04:50;;;;;;;10.75;7.07;;;;;;;21.02;100.00;-18591.91;5008130;28;20094;-76
2023/08/29 09:07:15;;;;;;;9.70;7.15;;;;;;;20.44;100.00;-18576.66;5008302;28;20045;-76
2023/08/29 09:09:41;;;;;;;10.70;6.78;;;;;;;20.70;100.00;-18583.47;5024748;28;20176;-77
2023/08/29 09:12:07;;;;;;;10.77;7.72;;;;;;;20.21;100.00;-18570.53;5007486;28;20126;-76
2023/08/29 09:14:32;;;;;;;10.75;6.90;;;;;;;20.16;100.00;-18569.03;5017280;28;20048;-76
2023/08/29 09:16:59;;;;;;;10.15;7.18;;;;;;;20.11;100.00;-18567.69;5026766;28;20721;-76
2023/08/29 09:19:25;;;;;;;8.50;6.30;;;;;;;19.49;100.00;-18551.34;5023734;28;20030;-76
2023/08/29 09:21:51;;;;;;;8.27;6.82;;;;;;;19.61;100.00;-18554.59;5017793;28;20048;-76
2023/08/29 09:24:29;;;;;;;11.48;7.03;;;;;;;19.86;100.00;-18561.16;5009164;28;20448;-77
2023/08/29 09:26:54;;;;;;;9.73;6.53;;;;;;;19.85;100.00;-18560.88;4979648;28;20045;-77
2023/08/29 09:29:20;;;;;;;8.88;6.70;;;;;;;19.97;100.00;-18564.00;5024154;28;20637;-76
2023/08/29 09:31:49;;;;;;;10.13;7.25;;;;;;;20.11;100.00;-18567.81;5023824;28;20111;-77
2023/08/29 09:34:29;;;;;;;12.00;6.30;;;;;;;20.00;100.00;-18564.81;5017868;28;20455;-77
2023/08/29 09:36:58;;;;;;;8.55;5.90;;;;;;;20.11;100.00;-18567.69;5001772;28;20046;-76
2023/08/29 09:39:24;;;;;;;6.25;4.57;;;;;;;19.90;100.00;-18562.22;5023365;28;20033;-76
2023/08/29 09:42:10;;;;;;;8.38;5.18;;;;;;;20.00;100.00;-18564.97;5003712;28;20041;-77
2023/08/29 09:44:38;;;;;;;7.05;4.47;;;;;;;19.94;100.00;-18563.19;5014335;28;20416;-76
2023/08/29 09:47:05;;;;;;;9.05;4.80;;;;;;;19.95;100.00;-18563.59;5019955;28;20038;-76
2023/08/29 09:49:41;;;;;;;5.55;3.83;;;;;;;19.94;100.00;-18563.19;5020742;28;20037;-76
2023/08/29 09:52:07;;;;;;;6.28;4.55;;;;;;;20.12;100.00;-18567.97;5018984;28;20084;-77
2023/08/29 09:54:33;;;;;;;7.50;5.15;;;;;;;20.59;100.00;-18580.63;5021918;28;20045;-76
2023/08/29 09:57:05;;;;;;;7.95;4.43;;;;;;;20.32;100.00;-18573.25;5021351;28;20037;-76
2023/08/29 09:59:34;;;;;;;5.75;3.83;;;;;;;20.39;100.00;-18575.16;5016766;28;20042;-76
2023/08/29 10:02:00;;;;;;;6.15;4.20;;;;;;;20.46;100.00;-18577.22;5024002;28;20091;-76
2023/08/29 10:04:29;;;;;;;5.90;4.43;;;;;;;20.32;100.00;-18573.25;5022852;28;20050;-77
2023/08/29 10:06:56;;;;;;;8.43;3.53;;;;;;;20.51;100.00;-18578.56;5023889;28;20037;-77
2023/08/29 10:09:25;;;;;;;8.50;4.20;;;;;;;20.47;100.00;-18577.47;5024408;28;20125;-77
2023/08/29 10:11:52;;;;;;;6.47;4.72;;;;;;;20.54;100.00;-18579.13;5006677;28;20048;-77
2023/08/29 10:14:18;;;;;;;3.40;2.75;;;;;;;20.58;100.00;-18580.22;5008535;28;20566;-76
2023/08/29 10:16:46;;;;;;;6.45;3.00;;;;;;;20.59;100.00;-18580.63;5027286;28;20041;-76
2023/08/29 10:19:14;;;;;;;4.50;3.05;;;;;;;20.67;100.00;-18582.66;5021252;28;20042;-77
2023/08/29 10:21:42;;;;;;;5.68;2.58;;;;;;;20.80;100.00;-18586.19;5018973;28;20042;-77
2023/08/29 10:24:09;;;;;;;6.13;2.67;;;;;;;20.84;100.00;-18587.28;5021120;28;20103;-76
2023/08/29 10:26:36;;;;;;;5.00;2.47;;;;;;;21.06;100.00;-18593.13;5025936;28;20120;-76
2023/08/29 10:29:03;;;;;;;3.03;1.90;;;;;;;21.04;100.00;-18592.44;5016630;28;20045;-76
2023/08/29 10:31:29;;;;;;;3.65;1.73;;;;;;;21.25;100.00;-18598.16;5023128;28;20045;-77
2023/08/29 10:33:56;;;;;;;3.90;2.58;;;;;;;21.16;100.00;-18595.72;5020176;28;20044;-76
2023/08/29 10:36:23;;;;;;;4.55;2.85;;;;;;;21.29;100.00;-18599.25;5019303;28;20089;-77
2023/08/29 10:38:49;;;;;;;6.35;3.05;;;;;;;21.22;100.00;-18597.34;5025227;28;20481;-76
2023/08/29 10:41:15;;;;;;;5.72;2.88;;;;;;;21.49;100.00;-18604.56;5024076;28;20099;-77
2023/08/29 10:43:41;;;;;;;4.88;2.92;;;;;;;21.60;100.00;-18607.53;5021199;28;20050;-77
2023/08/29 10:46:10;;;;;;;4.63;2.90;;;;;;;21.58;100.00;-18607.00;5023542;28;20065;-77
2023/08/29 10:48:44;;;;;;;4.95;2.42;;;;;;;21.70;100.00;-18610.13;5024385;28;20484;-77
2023/08/29 10:51:19;;;;;;;4.90;3.00;;;;;;;21.80;100.00;-18612.84;5017382;28;20065;-77
2023/08/29 10:53:51;;;;;;;6.03;2.00;;;;;;;22.04;100.00;-18619.22;5002525;28;20041;-76
2023/08/29 10:56:18;;;;;;;2.63;1.70;;;;;;;22.16;100.00;-18622.22;5028635;28;20049;-77
2023/08/29 10:58:45;;;;;;;2.80;1.70;;;;;;;22.30;100.00;-18626.16;5003102;28;20460;-77
2023/08/29 11:01:39;;;;;;;2.60;1.60;;;;;;;22.20;100.00;-18623.44;5029098;28;20402;-76